createdAt,value
2019-02-07T00:00:24.374Z,6.85
2019-02-07T00:02:55.992Z,6.77
2019-02-07T00:05:26.438Z,6.93
2019-02-07T00:07:56.879Z,7.23
2019-02-07T00:10:27.322Z,7.03
2019-02-07T00:12:58.724Z,5.87
2019-02-07T00:15:29.543Z,6.80
2019-02-07T00:18:01.845Z,7.43
2019-02-07T00:20:34.705Z,6.60
2019-02-07T00:23:06.604Z,7.00
2019-02-07T00:25:38.437Z,7.20
2019-02-07T00:28:11.707Z,7.23
2019-02-07T00:30:42.243Z,7.50
2019-02-07T00:33:12.691Z,6.73
2019-02-07T00:35:43.119Z,6.90
2019-02-07T00:38:14.263Z,7.30
2019-02-07T00:40:45.828Z,7.53
2019-02-07T00:43:17.354Z,7.63
2019-02-07T00:45:49.301Z,6.67
2019-02-07T00:48:19.715Z,6.50
2019-02-07T00:50:50.564Z,7.10
2019-02-07T00:53:22.766Z,6.53
2019-02-07T00:55:53.197Z,6.87
2019-02-07T00:58:24.729Z,7.17
2019-02-07T01:00:57.083Z,7.50
2019-02-07T01:03:30.865Z,6.73
2019-02-07T01:06:03.014Z,7.77
2019-02-07T01:08:36.487Z,7.13
2019-02-07T01:11:07.059Z,6.93
2019-02-07T01:13:38.088Z,7.70
2019-02-07T01:16:10.354Z,7.50
2019-02-07T01:18:41.509Z,7.20
2019-02-07T01:21:12.194Z,6.70
2019-02-07T01:23:43.757Z,7.70
2019-02-07T01:26:15.053Z,8.13
2019-02-07T01:28:46.097Z,7.23
2019-02-07T01:31:18.344Z,7.17
2019-02-07T01:33:51.048Z,7.43
2019-02-07T01:36:23.344Z,7.20
2019-02-07T01:38:53.949Z,7.40
2019-02-07T01:41:24.455Z,7.03
2019-02-07T01:43:55.137Z,6.93
2019-02-07T01:49:16.594Z,7.13
2019-02-07T01:51:47.107Z,6.80
2019-02-07T01:54:17.832Z,6.57
2019-02-07T01:56:48.319Z,6.90
2019-02-07T01:59:21.135Z,6.73
2019-02-07T02:01:51.574Z,6.80
2019-02-07T02:04:23.472Z,7.77
2019-02-07T02:06:55.101Z,6.60
2019-02-07T02:09:25.660Z,6.93
2019-02-07T02:11:56.509Z,7.17
2019-02-07T02:14:28.625Z,6.90
2019-02-07T02:17:03.298Z,6.77
2019-02-07T02:19:33.719Z,6.60
2019-02-07T02:22:04.153Z,6.43
2019-02-07T02:24:34.605Z,5.97
2019-02-07T02:27:05.035Z,6.17
2019-02-07T02:29:36.325Z,6.53
2019-02-07T02:32:08.743Z,6.40
2019-02-07T02:34:39.141Z,6.30
2019-02-07T02:37:10.382Z,6.70
2019-02-07T02:39:40.833Z,6.50
2019-02-07T02:42:12.144Z,6.97
2019-02-07T02:44:42.970Z,6.03
2019-02-07T02:47:13.413Z,6.40
2019-02-07T02:49:43.832Z,6.63
2019-02-07T02:52:15.157Z,6.43
2019-02-07T02:54:50.817Z,6.60
2019-02-07T02:57:21.651Z,6.90
2019-02-07T02:59:52.066Z,5.93
2019-02-07T03:02:50.304Z,6.50
2019-02-07T03:05:38.541Z,6.47
2019-02-07T03:08:33.428Z,7.00
2019-02-07T03:11:27.897Z,6.53
2019-02-07T03:14:23.229Z,6.80
2019-02-07T03:17:22.704Z,6.30
2019-02-07T03:20:18.543Z,5.53
2019-02-07T03:23:12.521Z,6.33
2019-02-07T03:26:14.571Z,6.73
2019-02-07T03:29:05.674Z,6.07
2019-02-07T03:32:05.056Z,6.70
2019-02-07T03:34:58.302Z,7.00
2019-02-07T03:37:52.447Z,6.47
2019-02-07T03:41:00.109Z,6.40
2019-02-07T03:43:42.842Z,5.93
2019-02-07T03:46:30.944Z,6.77
2019-02-07T03:49:12.573Z,6.20
2019-02-07T03:52:11.076Z,6.73
2019-02-07T03:55:11.268Z,7.13
2019-02-07T03:58:06.727Z,5.90
2019-02-07T04:01:04.414Z,5.97
2019-02-07T04:04:00.964Z,5.87
2019-02-07T04:06:51.003Z,6.70
2019-02-07T04:09:43.354Z,6.13
2019-02-07T04:12:40.382Z,6.23
2019-02-07T04:15:33.630Z,5.67
2019-02-07T04:18:22.102Z,5.93
2019-02-07T04:21:14.700Z,6.37
2019-02-07T04:24:17.741Z,6.37
2019-02-07T04:27:04.651Z,5.97
2019-02-07T04:29:44.188Z,5.47
2019-02-07T04:32:39.716Z,6.63
2019-02-07T04:35:24.892Z,6.10
2019-02-07T04:38:13.173Z,6.43
2019-02-07T04:40:57.237Z,7.00
2019-02-07T04:43:45.443Z,6.57
2019-02-07T04:46:50.395Z,6.20
2019-02-07T04:49:39.768Z,6.50
2019-02-07T04:52:27.837Z,6.00
2019-02-07T04:55:27.658Z,6.47
2019-02-07T04:58:07.639Z,5.90
2019-02-07T05:00:58.606Z,6.30
2019-02-07T05:03:43.952Z,6.67
2019-02-07T05:06:29.418Z,6.20
2019-02-07T05:09:25.841Z,6.70
2019-02-07T05:12:15.809Z,6.53
2019-02-07T05:15:05.434Z,7.60
2019-02-07T05:17:55.124Z,6.83
2019-02-07T05:20:41.216Z,7.10
2019-02-07T05:23:29.167Z,7.07
2019-02-07T05:26:18.379Z,6.30
2019-02-07T05:29:22.617Z,6.70
2019-02-07T05:32:16.247Z,6.87
2019-02-07T05:34:55.584Z,6.90
2019-02-07T05:37:55.702Z,6.23
2019-02-07T05:40:45.152Z,6.80
2019-02-07T05:43:43.315Z,6.60
2019-02-07T05:46:49.341Z,7.27
2019-02-07T05:49:39.285Z,6.59
2019-02-07T05:52:35.385Z,7.20
2019-02-07T05:55:32.513Z,7.00
2019-02-07T05:58:27.038Z,7.30
2019-02-07T06:01:09.808Z,6.80
2019-02-07T06:04:01.994Z,6.83
2019-02-07T06:06:54.263Z,6.93
2019-02-07T06:09:33.470Z,7.60
2019-02-07T06:12:21.385Z,6.47
2019-02-07T06:15:13.585Z,6.87
2019-02-07T06:18:02.949Z,6.93
2019-02-07T06:20:47.756Z,7.17
2019-02-07T06:23:46.293Z,7.53
2019-02-07T06:26:45.928Z,6.83
2019-02-07T06:29:29.408Z,6.77
2019-02-07T06:32:09.976Z,6.70
2019-02-07T06:34:50.644Z,6.93
2019-02-07T06:37:38.068Z,6.87
2019-02-07T06:40:47.742Z,7.10
2019-02-07T06:43:41.409Z,7.33
2019-02-07T06:46:29.063Z,6.97
2019-02-07T06:49:28.426Z,8.30
2019-02-07T06:52:33.044Z,8.30
2019-02-07T06:55:26.609Z,6.83
2019-02-07T06:58:15.424Z,6.93
2019-02-07T07:01:08.909Z,7.27
2019-02-07T07:04:00.127Z,7.23
2019-02-07T07:06:39.744Z,6.77
2019-02-07T07:09:40.887Z,7.47
2019-02-07T07:12:39.139Z,7.20
2019-02-07T07:15:29.367Z,6.77
2019-02-07T07:18:19.960Z,7.13
2019-02-07T07:21:14.340Z,7.47
2019-02-07T07:24:02.994Z,7.30
2019-02-07T07:26:52.165Z,7.30
2019-02-07T07:29:50.984Z,7.53
2019-02-07T07:32:36.028Z,8.13
2019-02-07T07:35:31.310Z,8.20
2019-02-07T07:38:19.578Z,7.53
2019-02-07T07:41:12.443Z,8.20
2019-02-07T07:44:15.193Z,8.03
2019-02-07T07:47:00.496Z,8.27
2019-02-07T07:50:06.683Z,8.50
2019-02-07T07:52:56.631Z,8.10
2019-02-07T07:56:02.486Z,7.70
2019-02-07T07:59:08.787Z,7.10
2019-02-07T08:01:52.811Z,8.03
2019-02-07T08:04:35.591Z,8.27
2019-02-07T08:07:25.936Z,7.40
2019-02-07T08:10:16.340Z,9.27
2019-02-07T08:13:09.185Z,7.53
2019-02-07T08:16:01.642Z,8.53
2019-02-07T08:18:55.876Z,8.40
2019-02-07T08:21:45.306Z,8.57
2019-02-07T08:24:43.386Z,8.63
2019-02-07T08:27:42.139Z,8.97
2019-02-07T08:30:36.690Z,9.03
2019-02-07T08:33:44.576Z,8.23
2019-02-07T08:36:40.107Z,9.03
2019-02-07T08:39:33.990Z,8.07
2019-02-07T08:42:35.787Z,8.13
2019-02-07T08:45:46.077Z,7.30
2019-02-07T08:48:27.581Z,6.87
2019-02-07T08:51:12.119Z,7.73
2019-02-07T08:53:52.084Z,7.00
2019-02-07T08:56:33.738Z,7.53
2019-02-07T08:59:45.191Z,7.80
2019-02-07T09:02:34.701Z,7.43
2019-02-07T09:05:33.838Z,7.73
2019-02-07T09:08:20.935Z,7.57
2019-02-07T09:11:23.695Z,7.20
2019-02-07T09:14:12.391Z,7.83
2019-02-07T09:16:59.886Z,8.60
2019-02-07T09:19:51.756Z,7.37
2019-02-07T09:22:33.405Z,6.77
2019-02-07T09:25:34.570Z,7.13
2019-02-07T09:28:27.435Z,7.30
2019-02-07T09:31:21.610Z,6.57
2019-02-07T09:34:29.204Z,6.33
2019-02-07T09:37:17.812Z,6.03
2019-02-07T09:40:13.269Z,6.23
2019-02-07T09:42:58.422Z,6.23
2019-02-07T09:45:46.444Z,5.67
2019-02-07T09:48:50.896Z,5.50
2019-02-07T09:51:39.226Z,4.93
2019-02-07T09:54:22.925Z,4.77
2019-02-07T09:56:59.753Z,5.33
2019-02-07T10:00:04.646Z,4.93
2019-02-07T10:02:42.719Z,4.80
2019-02-07T10:05:48.311Z,5.23
2019-02-07T10:08:49.736Z,5.40
2019-02-07T10:11:37.836Z,5.07
2019-02-07T10:14:27.172Z,5.27
2019-02-07T10:17:22.798Z,4.93
2019-02-07T10:20:11.723Z,4.77
2019-02-07T10:23:06.997Z,5.53
2019-02-07T10:25:53.998Z,5.30
2019-02-07T10:28:42.366Z,4.83
2019-02-07T10:31:30.742Z,5.10
2019-02-07T10:34:18.904Z,5.40
2019-02-07T10:36:56.845Z,5.57
2019-02-07T10:39:47.732Z,6.13
2019-02-07T10:42:35.740Z,5.70
2019-02-07T10:45:27.073Z,5.97
2019-02-07T10:48:19.166Z,5.50
2019-02-07T10:51:06.930Z,5.47
2019-02-07T10:53:53.275Z,5.40
2019-02-07T10:56:39.079Z,6.23
2019-02-07T10:59:40.753Z,5.73
2019-02-07T11:02:25.545Z,4.73
2019-02-07T11:05:18.162Z,5.87
2019-02-07T11:08:07.526Z,4.97
2019-02-07T11:10:57.110Z,5.10
2019-02-07T11:13:58.495Z,5.93
2019-02-07T11:16:47.907Z,5.53
2019-02-07T11:19:41.335Z,5.10
2019-02-07T11:22:29.188Z,4.50
2019-02-07T11:25:18.507Z,4.90
2019-02-07T11:28:20.065Z,4.60
2019-02-07T11:30:59.949Z,5.30
2019-02-07T11:33:49.442Z,4.67
2019-02-07T11:36:57.466Z,5.20
2019-02-07T11:39:46.813Z,4.77
2019-02-07T11:42:44.870Z,4.93
2019-02-07T11:45:36.811Z,4.67
2019-02-07T11:48:35.594Z,5.40
2019-02-07T11:51:24.026Z,5.00
2019-02-07T11:54:16.128Z,5.43
2019-02-07T11:57:03.953Z,4.97
2019-02-07T12:22:38.361Z,5.23
2019-02-07T12:25:33.929Z,4.27
2019-02-07T12:28:19.162Z,5.37
2019-02-07T12:31:17.419Z,4.93
2019-02-07T12:34:10.273Z,5.10
2019-02-07T12:37:00.433Z,5.10
2019-02-07T12:39:47.420Z,4.87
2019-02-07T12:42:38.458Z,4.93
2019-02-07T12:45:32.683Z,4.80
2019-02-07T12:48:24.807Z,4.83
2019-02-07T12:51:06.329Z,4.30
2019-02-07T12:53:55.481Z,4.70
2019-02-07T12:56:46.710Z,4.50
2019-02-07T12:59:45.193Z,5.03
2019-02-07T13:02:37.534Z,4.27
2019-02-07T13:05:31.403Z,4.80
2019-02-07T13:08:26.769Z,4.47
2019-02-07T13:11:05.550Z,4.03
2019-02-07T13:14:13.166Z,3.80
2019-02-07T13:17:01.540Z,3.63
2019-02-07T13:19:59.774Z,3.50
2019-02-07T13:22:49.738Z,3.60
2019-02-07T13:46:47.982Z,4.37
2019-02-07T13:49:34.208Z,4.37
2019-02-07T13:52:26.584Z,4.00
2019-02-07T13:55:17.083Z,3.87
2019-02-07T13:58:15.610Z,3.57
2019-02-07T14:01:10.725Z,4.23
2019-02-07T14:04:03.623Z,4.73
2019-02-07T14:07:07.144Z,4.55
2019-02-07T14:09:59.329Z,5.22
2019-02-07T14:13:04.172Z,4.80
2019-02-07T14:15:53.821Z,4.90
2019-02-07T14:18:46.573Z,5.07
2019-02-07T14:21:37.088Z,5.03
2019-02-07T14:24:34.304Z,5.40
2019-02-07T14:27:25.417Z,4.60
2019-02-07T14:30:13.705Z,5.43
2019-02-07T14:33:05.171Z,4.97
2019-02-07T14:36:00.420Z,5.17
2019-02-07T14:38:57.400Z,5.70
2019-02-07T14:41:44.300Z,5.90
2019-02-07T14:44:34.520Z,5.47
2019-02-07T14:47:05.023Z,5.80
2019-02-07T14:49:35.494Z,6.08
2019-02-07T14:52:07.938Z,5.97
2019-02-07T14:54:38.386Z,6.30
2019-02-07T14:57:08.966Z,5.87
2019-02-07T14:59:40.718Z,6.20
2019-02-07T15:02:11.278Z,6.27
2019-02-07T15:04:41.791Z,5.92
2019-02-07T15:07:14.547Z,6.13
2019-02-07T15:09:46.162Z,5.90
2019-02-07T15:12:16.614Z,5.60
2019-02-07T15:14:47.288Z,6.90
2019-02-07T15:17:18.374Z,7.07
2019-02-07T15:19:49.277Z,6.37
2019-02-07T15:22:19.773Z,7.07
2019-02-07T15:24:50.316Z,6.95
2019-02-07T15:27:21.299Z,7.00
2019-02-07T15:29:52.030Z,6.73
2019-02-07T15:32:22.502Z,7.25
2019-02-07T15:34:53.917Z,7.17
2019-02-07T15:37:24.543Z,7.60
2019-02-07T15:39:55.045Z,6.80
2019-02-07T15:42:25.492Z,7.10
2019-02-07T15:44:56.640Z,7.17
2019-02-07T15:47:27.175Z,7.58
2019-02-07T15:49:57.723Z,7.33
2019-02-07T15:52:28.257Z,7.13
2019-02-07T15:54:58.759Z,7.30
2019-02-07T15:57:29.384Z,7.33
2019-02-07T16:00:03.997Z,6.80
2019-02-07T16:02:47.095Z,6.77
2019-02-07T16:05:19.007Z,6.60
2019-02-07T16:07:49.885Z,6.53
2019-02-07T16:10:20.384Z,6.83
2019-02-07T16:12:50.843Z,6.30
2019-02-07T16:15:22.890Z,6.83
2019-02-07T16:17:53.429Z,6.80
2019-02-07T16:20:25.754Z,6.10
2019-02-07T16:22:58.948Z,7.00
2019-02-07T16:25:29.037Z,6.93
2019-02-07T16:28:48.029Z,6.70
2019-02-07T16:31:18.541Z,6.07
2019-02-07T16:33:49.024Z,6.67
2019-02-07T16:36:20.630Z,6.30
2019-02-07T16:42:42.842Z,6.10
2019-02-07T16:45:16.461Z,6.23
2019-02-07T16:47:46.941Z,6.30
2019-02-07T16:54:08.911Z,6.70
2019-02-07T16:56:39.469Z,6.20
2019-02-07T16:59:11.667Z,6.30
2019-02-07T17:01:42.414Z,6.23
2019-02-07T17:05:01.277Z,6.27
2019-02-07T17:07:32.061Z,5.67
2019-02-07T17:13:53.776Z,6.07
2019-02-07T17:16:25.642Z,6.30
2019-02-07T17:18:56.119Z,6.70
2019-02-07T17:21:26.687Z,6.63
2019-02-07T17:23:57.194Z,5.93
2019-02-07T17:26:27.864Z,5.77
2019-02-07T17:28:58.379Z,6.90
2019-02-07T17:31:29.929Z,6.43
2019-02-07T17:34:00.881Z,7.03
2019-02-07T17:36:31.454Z,6.43
2019-02-07T17:39:02.867Z,7.13
2019-02-07T17:41:33.356Z,7.43
2019-02-07T17:44:03.864Z,7.33
2019-02-07T17:46:34.457Z,7.97
2019-02-07T17:49:05.278Z,7.83
2019-02-07T17:51:35.754Z,8.70
2019-02-07T17:54:06.884Z,8.37
2019-02-07T17:56:37.378Z,8.70
2019-02-07T17:59:07.876Z,8.97
2019-02-07T18:01:38.626Z,8.10
2019-02-07T18:04:09.193Z,9.27
2019-02-07T18:06:42.327Z,8.27
2019-02-07T18:09:12.922Z,8.13
2019-02-07T18:11:43.497Z,9.00
2019-02-07T18:14:14.381Z,8.67
2019-02-07T18:16:44.861Z,8.33
2019-02-07T18:19:15.565Z,8.67
2019-02-07T18:21:47.257Z,8.67
2019-02-07T18:24:17.783Z,9.43
2019-02-07T18:26:48.290Z,9.50
2019-02-07T18:29:18.954Z,8.87
2019-02-07T18:31:49.647Z,10.07
2019-02-07T18:34:20.163Z,9.70
2019-02-07T18:36:50.646Z,9.27
2019-02-07T18:39:23.544Z,9.57
2019-02-07T18:41:54.316Z,9.47
2019-02-07T18:44:26.023Z,9.93
2019-02-07T18:46:56.664Z,9.97
2019-02-07T18:49:29.671Z,11.10
2019-02-07T18:52:03.122Z,11.00
2019-02-07T18:54:34.007Z,10.03
2019-02-07T18:57:04.548Z,10.37
2019-02-07T18:59:35.569Z,10.23
2019-02-07T19:02:06.556Z,10.73
2019-02-07T19:04:36.967Z,10.77
2019-02-07T19:07:08.387Z,10.40
2019-02-07T19:09:38.862Z,9.83
2019-02-07T19:12:09.365Z,9.57
2019-02-07T19:14:40.430Z,10.57
2019-02-07T19:17:11.917Z,10.43
2019-02-07T19:19:42.901Z,10.20
2019-02-07T19:22:13.665Z,11.00
2019-02-07T19:24:44.190Z,11.00
2019-02-07T19:27:16.120Z,10.53
2019-02-07T19:29:48.123Z,10.67
2019-02-07T19:32:18.629Z,11.00
2019-02-07T19:34:49.205Z,11.57
2019-02-07T19:37:19.672Z,11.40
2019-02-07T19:39:50.645Z,11.30
2019-02-07T19:42:21.244Z,10.83
2019-02-07T19:44:52.047Z,11.97
2019-02-07T19:47:22.938Z,11.23
2019-02-07T19:49:55.241Z,11.70
2019-02-07T19:52:26.067Z,10.90
2019-02-07T19:54:57.172Z,11.50
2019-02-07T19:57:28.036Z,11.30
2019-02-07T19:59:58.595Z,10.90
2019-02-07T20:02:29.136Z,11.70
2019-02-07T20:05:00.315Z,11.17
2019-02-07T20:07:33.025Z,11.97
2019-02-07T20:10:05.980Z,11.27
2019-02-07T20:12:36.615Z,11.60
2019-02-07T20:15:15.918Z,12.10
2019-02-07T20:17:51.776Z,11.53
2019-02-07T20:20:24.795Z,11.97
2019-02-07T20:22:56.228Z,12.17
2019-02-07T20:25:26.743Z,13.07
2019-02-07T20:27:57.867Z,12.67
2019-02-07T20:30:32.331Z,13.10
2019-02-07T20:33:03.124Z,13.03
2019-02-07T20:35:33.829Z,11.63
2019-02-07T20:38:05.177Z,12.70
2019-02-07T20:40:35.916Z,13.40
2019-02-07T20:43:07.721Z,12.67
2019-02-07T20:45:38.325Z,13.33
2019-02-07T20:48:10.299Z,13.03
2019-02-07T20:50:40.915Z,12.43
2019-02-07T20:53:11.390Z,12.03
2019-02-07T20:55:41.964Z,12.27
2019-02-07T20:58:12.667Z,12.73
2019-02-07T21:03:21.690Z,13.27
2019-02-07T21:05:52.240Z,13.40
2019-02-07T21:08:22.815Z,12.23
2019-02-07T21:10:53.672Z,12.33
2019-02-07T21:13:24.221Z,12.57
2019-02-07T21:15:55.927Z,12.77
2019-02-07T21:18:26.414Z,11.90
2019-02-07T21:20:57.254Z,14.57
2019-02-07T21:23:27.781Z,12.30
2019-02-07T21:25:58.707Z,13.03
2019-02-07T21:28:29.613Z,12.27
2019-02-07T21:31:00.079Z,12.87
2019-02-07T21:33:30.657Z,13.17
2019-02-07T21:36:01.596Z,12.37
2019-02-07T21:38:32.476Z,11.73
2019-02-07T21:41:02.930Z,12.10
2019-02-07T21:43:33.743Z,12.63
2019-02-07T21:46:04.340Z,12.63
2019-02-07T21:48:34.820Z,12.70
2019-02-07T21:51:06.523Z,12.47
2019-02-07T21:53:37.422Z,12.80
2019-02-07T21:56:07.877Z,12.93
2019-02-07T21:58:38.462Z,12.87
2019-02-07T22:01:09.544Z,12.63
2019-02-07T22:03:40.050Z,12.60
2019-02-07T22:06:10.975Z,12.37
2019-02-07T22:08:41.452Z,11.67
2019-02-07T22:11:11.923Z,11.93
2019-02-07T22:13:43.655Z,11.23
2019-02-07T22:16:14.130Z,11.50
2019-02-07T22:18:44.608Z,11.23
2019-02-07T22:21:15.362Z,11.97
2019-02-07T22:23:45.838Z,11.30
2019-02-07T22:26:16.274Z,11.53
2019-02-07T22:28:46.713Z,10.60
2019-02-07T22:31:21.531Z,11.07
2019-02-07T22:33:52.137Z,11.33
2019-02-07T22:36:23.383Z,10.80
2019-02-07T22:38:53.873Z,11.03
2019-02-07T22:41:24.323Z,11.20
2019-02-07T22:43:54.839Z,11.00
2019-02-07T22:46:26.412Z,11.00
2019-02-07T22:48:58.967Z,9.83
2019-02-07T22:51:29.427Z,10.70
2019-02-07T22:53:59.893Z,10.63
2019-02-07T22:56:30.332Z,9.70
2019-02-07T22:59:00.807Z,9.57
2019-02-07T23:01:56.578Z,9.47
2019-02-07T23:04:29.564Z,9.77
2019-02-07T23:06:59.995Z,10.30
2019-02-07T23:09:30.479Z,9.77
2019-02-07T23:12:01.039Z,9.93
2019-02-07T23:14:31.488Z,8.33
2019-02-07T23:17:02.144Z,8.90
2019-02-07T23:19:32.593Z,9.67
2019-02-07T23:22:03.084Z,9.13
2019-02-07T23:24:33.908Z,9.50
2019-02-07T23:27:04.887Z,9.33
2019-02-07T23:29:35.316Z,8.77
2019-02-07T23:32:06.239Z,8.93
2019-02-07T23:34:36.733Z,9.70
2019-02-07T23:37:07.182Z,9.50
2019-02-07T23:39:38.584Z,8.70
2019-02-07T23:42:09.147Z,8.40
2019-02-07T23:44:39.687Z,8.43
2019-02-07T23:47:10.147Z,9.20
2019-02-07T23:49:40.748Z,8.83
2019-02-07T23:52:11.590Z,9.27
2019-02-07T23:54:42.108Z,8.30
2019-02-07T23:57:12.570Z,7.80
2019-02-07T23:59:43.044Z,8.13
